sensor_id;sensor_type;location;lat;lon;timestamp;temperature;humidity
439;DHT22;206;48.782;9.252;2023-09-19T00:00:26;20.50;48.10
439;DHT22;206;48.782;9.252;2023-09-19T00:02:56;20.50;47.20
439;DHT22;206;48.782;9.252;2023-09-19T00:05:23;20.50;47.00
439;DHT22;206;48.782;9.252;2023-09-19T00:07:50;20.50;47.10
439;DHT22;206;48.782;9.252;2023-09-19T00:10:19;20.40;47.10
439;DHT22;206;48.782;9.252;2023-09-19T00:12:45;20.40;46.90
439;DHT22;206;48.782;9.252;2023-09-19T00:15:11;20.50;47.30
439;DHT22;206;48.782;9.252;2023-09-19T00:17:37;20.40;47.50
439;DHT22;206;48.782;9.252;2023-09-19T00:20:04;20.40;48.00
439;DHT22;206;48.782;9.252;2023-09-19T00:22:39;20.30;48.40
439;DHT22;206;48.782;9.252;2023-09-19T00:25:05;20.30;49.00
439;DHT22;206;48.782;9.252;2023-09-19T00:27:31;20.30;49.20
439;DHT22;206;48.782;9.252;2023-09-19T00:29:59;20.30;49.30
439;DHT22;206;48.782;9.252;2023-09-19T00:32:25;20.30;49.40
439;DHT22;206;48.782;9.252;2023-09-19T00:34:56;20.30;49.10
439;DHT22;206;48.782;9.252;2023-09-19T00:37:22;20.20;49.40
439;DHT22;206;48.782;9.252;2023-09-19T00:39:47;20.20;50.00
439;DHT22;206;48.782;9.252;2023-09-19T00:42:22;20.20;49.50
439;DHT22;206;48.782;9.252;2023-09-19T00:44:48;20.20;49.50
439;DHT22;206;48.782;9.252;2023-09-19T00:47:19;20.20;49.60
439;DHT22;206;48.782;9.252;2023-09-19T00:49:45;20.20;49.80
439;DHT22;206;48.782;9.252;2023-09-19T00:52:16;20.20;49.60
439;DHT22;206;48.782;9.252;2023-09-19T00:54:45;20.10;49.90
439;DHT22;206;48.782;9.252;2023-09-19T00:57:11;20.10;50.00
439;DHT22;206;48.782;9.252;2023-09-19T00:59:37;20.20;49.40
439;DHT22;206;48.782;9.252;2023-09-19T01:02:03;20.10;50.60
439;DHT22;206;48.782;9.252;2023-09-19T01:04:29;20.10;49.90
439;DHT22;206;48.782;9.252;2023-09-19T01:06:54;20.10;49.70
439;DHT22;206;48.782;9.252;2023-09-19T01:09:21;20.20;49.60
439;DHT22;206;48.782;9.252;2023-09-19T01:11:48;20.20;49.40
439;DHT22;206;48.782;9.252;2023-09-19T01:14:34;20.20;49.10
439;DHT22;206;48.782;9.252;2023-09-19T01:17:08;20.20;49.20
439;DHT22;206;48.782;9.252;2023-09-19T01:22:36;20.20;48.20
439;DHT22;206;48.782;9.252;2023-09-19T01:28:30;20.20;48.10
439;DHT22;206;48.782;9.252;2023-09-19T01:31:00;20.20;48.10
439;DHT22;206;48.782;9.252;2023-09-19T01:34:01;20.20;48.40
439;DHT22;206;48.782;9.252;2023-09-19T01:36:34;20.20;48.30
439;DHT22;206;48.782;9.252;2023-09-19T01:39:04;20.20;47.90
439;DHT22;206;48.782;9.252;2023-09-19T01:41:47;20.20;47.90
439;DHT22;206;48.782;9.252;2023-09-19T01:47:19;20.20;47.30
439;DHT22;206;48.782;9.252;2023-09-19T01:50:02;20.20;46.90
439;DHT22;206;48.782;9.252;2023-09-19T01:52:48;20.20;46.70
439;DHT22;206;48.782;9.252;2023-09-19T01:55:15;20.30;46.70
439;DHT22;206;48.782;9.252;2023-09-19T01:57:50;20.30;46.60
439;DHT22;206;48.782;9.252;2023-09-19T02:00:18;20.30;46.50
439;DHT22;206;48.782;9.252;2023-09-19T02:02:47;20.30;45.80
439;DHT22;206;48.782;9.252;2023-09-19T02:05:22;20.40;45.00
439;DHT22;206;48.782;9.252;2023-09-19T02:07:49;20.40;45.10
439;DHT22;206;48.782;9.252;2023-09-19T02:10:14;20.40;45.10
439;DHT22;206;48.782;9.252;2023-09-19T02:12:40;20.40;45.40
439;DHT22;206;48.782;9.252;2023-09-19T02:15:06;20.40;45.40
439;DHT22;206;48.782;9.252;2023-09-19T02:17:32;20.40;45.10
439;DHT22;206;48.782;9.252;2023-09-19T02:19:58;20.40;45.00
439;DHT22;206;48.782;9.252;2023-09-19T02:22:24;20.40;44.40
439;DHT22;206;48.782;9.252;2023-09-19T02:24:50;20.40;44.70
439;DHT22;206;48.782;9.252;2023-09-19T02:27:16;20.30;44.90
439;DHT22;206;48.782;9.252;2023-09-19T02:29:43;20.30;44.20
439;DHT22;206;48.782;9.252;2023-09-19T02:32:08;20.40;44.00
439;DHT22;206;48.782;9.252;2023-09-19T02:34:37;20.30;44.10
439;DHT22;206;48.782;9.252;2023-09-19T02:37:05;20.30;44.00
439;DHT22;206;48.782;9.252;2023-09-19T02:39:31;20.30;44.20
439;DHT22;206;48.782;9.252;2023-09-19T02:41:57;20.20;44.50
439;DHT22;206;48.782;9.252;2023-09-19T02:44:23;20.20;44.50
439;DHT22;206;48.782;9.252;2023-09-19T02:46:49;20.20;44.60
439;DHT22;206;48.782;9.252;2023-09-19T02:49:16;20.20;44.80
439;DHT22;206;48.782;9.252;2023-09-19T02:51:43;20.20;45.00
439;DHT22;206;48.782;9.252;2023-09-19T02:54:09;20.10;45.10
439;DHT22;206;48.782;9.252;2023-09-19T02:56:35;20.10;45.00
439;DHT22;206;48.782;9.252;2023-09-19T02:59:01;20.10;45.20
439;DHT22;206;48.782;9.252;2023-09-19T03:01:27;20.10;45.30
439;DHT22;206;48.782;9.252;2023-09-19T03:03:55;20.00;45.50
439;DHT22;206;48.782;9.252;2023-09-19T03:06:21;20.00;45.90
439;DHT22;206;48.782;9.252;2023-09-19T03:08:49;20.00;46.20
439;DHT22;206;48.782;9.252;2023-09-19T03:11:17;19.90;46.30
439;DHT22;206;48.782;9.252;2023-09-19T03:13:50;20.00;46.40
439;DHT22;206;48.782;9.252;2023-09-19T03:16:16;20.00;46.60
439;DHT22;206;48.782;9.252;2023-09-19T03:18:42;20.00;46.50
439;DHT22;206;48.782;9.252;2023-09-19T03:21:07;20.00;46.50
439;DHT22;206;48.782;9.252;2023-09-19T03:23:33;20.00;46.70
439;DHT22;206;48.782;9.252;2023-09-19T03:25:59;20.00;46.60
439;DHT22;206;48.782;9.252;2023-09-19T03:28:24;20.00;46.80
439;DHT22;206;48.782;9.252;2023-09-19T03:31:06;20.00;47.20
439;DHT22;206;48.782;9.252;2023-09-19T03:33:32;20.00;47.30
439;DHT22;206;48.782;9.252;2023-09-19T03:35:59;20.00;47.20
439;DHT22;206;48.782;9.252;2023-09-19T03:38:26;20.00;47.50
439;DHT22;206;48.782;9.252;2023-09-19T03:40:53;20.00;47.30
439;DHT22;206;48.782;9.252;2023-09-19T03:43:19;20.00;47.30
439;DHT22;206;48.782;9.252;2023-09-19T03:45:44;20.00;47.40
439;DHT22;206;48.782;9.252;2023-09-19T03:48:12;20.10;47.30
439;DHT22;206;48.782;9.252;2023-09-19T03:50:38;20.20;47.10
439;DHT22;206;48.782;9.252;2023-09-19T03:53:04;20.10;46.80
439;DHT22;206;48.782;9.252;2023-09-19T03:55:30;20.10;46.90
439;DHT22;206;48.782;9.252;2023-09-19T03:57:56;20.20;47.50
439;DHT22;206;48.782;9.252;2023-09-19T04:00:22;20.10;46.80
439;DHT22;206;48.782;9.252;2023-09-19T04:02:52;20.10;46.80
439;DHT22;206;48.782;9.252;2023-09-19T04:05:18;20.10;46.70
439;DHT22;206;48.782;9.252;2023-09-19T04:07:43;20.10;46.90
439;DHT22;206;48.782;9.252;2023-09-19T04:10:09;20.10;47.10
439;DHT22;206;48.782;9.252;2023-09-19T04:12:37;20.10;47.00
439;DHT22;206;48.782;9.252;2023-09-19T04:15:05;20.10;47.20
439;DHT22;206;48.782;9.252;2023-09-19T04:17:30;20.10;47.30
439;DHT22;206;48.782;9.252;2023-09-19T04:19:58;20.00;47.70
439;DHT22;206;48.782;9.252;2023-09-19T04:22:24;20.00;47.90
439;DHT22;206;48.782;9.252;2023-09-19T04:24:49;20.00;47.70
439;DHT22;206;48.782;9.252;2023-09-19T04:27:15;20.00;47.70
439;DHT22;206;48.782;9.252;2023-09-19T04:29:41;19.90;47.90
439;DHT22;206;48.782;9.252;2023-09-19T04:32:09;19.90;48.50
439;DHT22;206;48.782;9.252;2023-09-19T04:34:35;19.90;48.80
439;DHT22;206;48.782;9.252;2023-09-19T04:37:01;19.80;49.50
439;DHT22;206;48.782;9.252;2023-09-19T04:39:27;19.80;49.20
439;DHT22;206;48.782;9.252;2023-09-19T04:41:53;19.90;49.00
439;DHT22;206;48.782;9.252;2023-09-19T04:44:20;19.90;49.30
439;DHT22;206;48.782;9.252;2023-09-19T04:46:46;19.90;49.10
439;DHT22;206;48.782;9.252;2023-09-19T04:49:12;20.00;49.50
439;DHT22;206;48.782;9.252;2023-09-19T04:51:39;20.00;48.80
439;DHT22;206;48.782;9.252;2023-09-19T04:54:05;20.00;48.70
439;DHT22;206;48.782;9.252;2023-09-19T04:56:30;20.00;48.50
439;DHT22;206;48.782;9.252;2023-09-19T04:58:58;20.00;48.70
439;DHT22;206;48.782;9.252;2023-09-19T05:01:26;20.10;48.50
439;DHT22;206;48.782;9.252;2023-09-19T05:03:52;20.10;48.30
439;DHT22;206;48.782;9.252;2023-09-19T05:06:21;20.10;49.40
439;DHT22;206;48.782;9.252;2023-09-19T05:08:50;20.20;52.00
439;DHT22;206;48.782;9.252;2023-09-19T05:11:18;20.20;52.70
439;DHT22;206;48.782;9.252;2023-09-19T05:13:45;20.10;53.80
439;DHT22;206;48.782;9.252;2023-09-19T05:16:10;20.10;54.60
439;DHT22;206;48.782;9.252;2023-09-19T05:18:36;20.10;55.10
439;DHT22;206;48.782;9.252;2023-09-19T05:21:02;20.00;56.30
439;DHT22;206;48.782;9.252;2023-09-19T05:23:28;20.00;57.80
439;DHT22;206;48.782;9.252;2023-09-19T05:25:54;19.90;57.30
439;DHT22;206;48.782;9.252;2023-09-19T05:28:20;19.90;58.60
439;DHT22;206;48.782;9.252;2023-09-19T05:30:45;19.90;59.60
439;DHT22;206;48.782;9.252;2023-09-19T05:33:12;19.90;59.60
439;DHT22;206;48.782;9.252;2023-09-19T05:35:38;19.80;59.50
439;DHT22;206;48.782;9.252;2023-09-19T05:38:05;19.90;60.30
439;DHT22;206;48.782;9.252;2023-09-19T05:40:34;19.80;60.50
439;DHT22;206;48.782;9.252;2023-09-19T05:43:00;19.80;60.40
439;DHT22;206;48.782;9.252;2023-09-19T05:45:26;19.80;60.30
439;DHT22;206;48.782;9.252;2023-09-19T05:47:53;19.80;59.00
439;DHT22;206;48.782;9.252;2023-09-19T05:50:29;19.80;58.70
439;DHT22;206;48.782;9.252;2023-09-19T05:52:55;19.80;62.20
439;DHT22;206;48.782;9.252;2023-09-19T05:55:23;19.70;62.10
439;DHT22;206;48.782;9.252;2023-09-19T05:57:54;19.60;59.90
439;DHT22;206;48.782;9.252;2023-09-19T06:00:20;19.50;58.40
439;DHT22;206;48.782;9.252;2023-09-19T06:02:51;19.50;59.70
439;DHT22;206;48.782;9.252;2023-09-19T06:05:17;19.50;60.60
439;DHT22;206;48.782;9.252;2023-09-19T06:07:43;19.40;61.70
439;DHT22;206;48.782;9.252;2023-09-19T06:10:09;19.30;63.00
439;DHT22;206;48.782;9.252;2023-09-19T06:12:39;19.20;63.80
439;DHT22;206;48.782;9.252;2023-09-19T06:15:05;19.10;65.30
439;DHT22;206;48.782;9.252;2023-09-19T06:17:31;19.10;61.70
439;DHT22;206;48.782;9.252;2023-09-19T06:19:57;19.00;60.00
439;DHT22;206;48.782;9.252;2023-09-19T06:22:23;18.90;63.40
439;DHT22;206;48.782;9.252;2023-09-19T06:24:49;18.90;58.80
439;DHT22;206;48.782;9.252;2023-09-19T06:27:15;18.80;59.10
439;DHT22;206;48.782;9.252;2023-09-19T06:29:41;18.80;59.70
439;DHT22;206;48.782;9.252;2023-09-19T06:32:08;18.70;61.50
439;DHT22;206;48.782;9.252;2023-09-19T06:34:37;18.70;63.00
439;DHT22;206;48.782;9.252;2023-09-19T06:37:08;18.70;62.10
439;DHT22;206;48.782;9.252;2023-09-19T06:39:34;18.80;62.50
439;DHT22;206;48.782;9.252;2023-09-19T06:42:00;18.90;62.50
439;DHT22;206;48.782;9.252;2023-09-19T06:44:27;19.00;58.90
439;DHT22;206;48.782;9.252;2023-09-19T06:46:55;19.10;59.20
439;DHT22;206;48.782;9.252;2023-09-19T06:49:20;19.20;59.10
439;DHT22;206;48.782;9.252;2023-09-19T06:51:46;19.30;56.80
439;DHT22;206;48.782;9.252;2023-09-19T06:54:12;19.40;57.90
439;DHT22;206;48.782;9.252;2023-09-19T06:56:37;19.50;55.70
439;DHT22;206;48.782;9.252;2023-09-19T06:59:03;19.50;55.70
439;DHT22;206;48.782;9.252;2023-09-19T07:01:31;19.60;53.50
439;DHT22;206;48.782;9.252;2023-09-19T07:03:57;19.70;53.60
439;DHT22;206;48.782;9.252;2023-09-19T07:06:23;19.80;52.40
439;DHT22;206;48.782;9.252;2023-09-19T07:08:49;19.80;48.70
439;DHT22;206;48.782;9.252;2023-09-19T07:11:15;19.80;51.50
439;DHT22;206;48.782;9.252;2023-09-19T07:13:41;19.90;53.70
439;DHT22;206;48.782;9.252;2023-09-19T07:16:07;20.00;51.80
439;DHT22;206;48.782;9.252;2023-09-19T07:18:34;20.10;52.60
439;DHT22;206;48.782;9.252;2023-09-19T07:21:00;20.20;52.20
439;DHT22;206;48.782;9.252;2023-09-19T07:23:30;20.40;49.10
439;DHT22;206;48.782;9.252;2023-09-19T07:26:00;20.50;51.50
439;DHT22;206;48.782;9.252;2023-09-19T07:28:26;20.50;50.60
439;DHT22;206;48.782;9.252;2023-09-19T07:30:52;20.60;49.20
439;DHT22;206;48.782;9.252;2023-09-19T07:33:18;20.60;48.20
439;DHT22;206;48.782;9.252;2023-09-19T07:35:47;20.60;46.70
439;DHT22;206;48.782;9.252;2023-09-19T07:38:13;20.70;47.00
439;DHT22;206;48.782;9.252;2023-09-19T07:40:39;20.70;47.30
439;DHT22;206;48.782;9.252;2023-09-19T07:43:05;20.80;47.40
439;DHT22;206;48.782;9.252;2023-09-19T07:45:32;20.90;46.20
439;DHT22;206;48.782;9.252;2023-09-19T07:47:58;20.90;44.20
439;DHT22;206;48.782;9.252;2023-09-19T07:50:24;20.90;45.10
439;DHT22;206;48.782;9.252;2023-09-19T07:52:52;21.00;44.70
439;DHT22;206;48.782;9.252;2023-09-19T07:55:19;21.00;43.50
439;DHT22;206;48.782;9.252;2023-09-19T07:57:46;21.10;43.60
439;DHT22;206;48.782;9.252;2023-09-19T08:00:12;21.20;43.20
439;DHT22;206;48.782;9.252;2023-09-19T08:02:39;21.30;41.70
439;DHT22;206;48.782;9.252;2023-09-19T08:05:06;21.40;41.40
439;DHT22;206;48.782;9.252;2023-09-19T08:07:34;21.40;41.20
439;DHT22;206;48.782;9.252;2023-09-19T08:10:01;21.50;41.70
439;DHT22;206;48.782;9.252;2023-09-19T08:12:27;21.50;40.50
439;DHT22;206;48.782;9.252;2023-09-19T08:14:53;21.60;39.50
439;DHT22;206;48.782;9.252;2023-09-19T08:17:18;21.70;39.10
439;DHT22;206;48.782;9.252;2023-09-19T08:19:45;21.70;39.10
439;DHT22;206;48.782;9.252;2023-09-19T08:22:11;21.80;39.20
439;DHT22;206;48.782;9.252;2023-09-19T08:24:37;21.90;38.60
439;DHT22;206;48.782;9.252;2023-09-19T08:27:04;22.00;37.70
439;DHT22;206;48.782;9.252;2023-09-19T08:29:31;22.10;37.20
439;DHT22;206;48.782;9.252;2023-09-19T08:31:57;22.20;37.50
439;DHT22;206;48.782;9.252;2023-09-19T08:34:26;22.30;36.40
439;DHT22;206;48.782;9.252;2023-09-19T08:36:53;22.40;36.40
439;DHT22;206;48.782;9.252;2023-09-19T08:39:22;22.50;35.80
439;DHT22;206;48.782;9.252;2023-09-19T08:41:48;22.60;36.30
439;DHT22;206;48.782;9.252;2023-09-19T08:44:14;22.60;33.00
439;DHT22;206;48.782;9.252;2023-09-19T08:46:41;22.70;32.60
439;DHT22;206;48.782;9.252;2023-09-19T08:49:22;22.70;32.10
439;DHT22;206;48.782;9.252;2023-09-19T08:51:58;22.80;32.90
439;DHT22;206;48.782;9.252;2023-09-19T08:54:29;22.90;32.60
439;DHT22;206;48.782;9.252;2023-09-19T08:57:00;22.90;32.50
439;DHT22;206;48.782;9.252;2023-09-19T08:59:28;23.00;31.30
439;DHT22;206;48.782;9.252;2023-09-19T09:01:55;23.00;30.30
439;DHT22;206;48.782;9.252;2023-09-19T09:04:22;23.00;29.90
439;DHT22;206;48.782;9.252;2023-09-19T09:06:50;23.00;30.60
439;DHT22;206;48.782;9.252;2023-09-19T09:09:20;23.10;30.50
439;DHT22;206;48.782;9.252;2023-09-19T09:11:45;23.10;30.30
439;DHT22;206;48.782;9.252;2023-09-19T09:14:14;23.20;29.90
439;DHT22;206;48.782;9.252;2023-09-19T09:16:39;23.20;29.00
439;DHT22;206;48.782;9.252;2023-09-19T09:19:05;23.30;29.30
439;DHT22;206;48.782;9.252;2023-09-19T09:21:31;23.40;27.50
439;DHT22;206;48.782;9.252;2023-09-19T09:26:55;23.50;25.80
439;DHT22;206;48.782;9.252;2023-09-19T09:29:44;23.60;25.80
439;DHT22;206;48.782;9.252;2023-09-19T09:32:28;23.50;24.70
439;DHT22;206;48.782;9.252;2023-09-19T09:35:03;23.50;24.20
439;DHT22;206;48.782;9.252;2023-09-19T09:37:35;23.40;23.90
439;DHT22;206;48.782;9.252;2023-09-19T09:40:04;23.40;23.60
439;DHT22;206;48.782;9.252;2023-09-19T09:42:42;23.30;23.50
439;DHT22;206;48.782;9.252;2023-09-19T09:47:47;23.20;21.80
439;DHT22;206;48.782;9.252;2023-09-19T09:50:28;23.20;21.90
439;DHT22;206;48.782;9.252;2023-09-19T09:53:25;23.20;21.80
439;DHT22;206;48.782;9.252;2023-09-19T09:58:22;23.30;22.30
439;DHT22;206;48.782;9.252;2023-09-19T10:00:57;23.50;21.70
439;DHT22;206;48.782;9.252;2023-09-19T10:03:35;23.60;21.50
439;DHT22;206;48.782;9.252;2023-09-19T10:06:19;23.70;20.90
439;DHT22;206;48.782;9.252;2023-09-19T10:11:30;23.70;20.10
439;DHT22;206;48.782;9.252;2023-09-19T10:13:58;23.70;19.80
439;DHT22;206;48.782;9.252;2023-09-19T10:16:29;23.70;20.10
439;DHT22;206;48.782;9.252;2023-09-19T10:19:00;23.80;19.30
439;DHT22;206;48.782;9.252;2023-09-19T10:21:28;23.80;19.90
439;DHT22;206;48.782;9.252;2023-09-19T10:23:58;23.80;19.70
439;DHT22;206;48.782;9.252;2023-09-19T10:26:26;23.80;19.60
439;DHT22;206;48.782;9.252;2023-09-19T10:28:56;23.90;19.20
439;DHT22;206;48.782;9.252;2023-09-19T10:31:23;24.00;19.30
439;DHT22;206;48.782;9.252;2023-09-19T10:33:51;24.00;19.50
439;DHT22;206;48.782;9.252;2023-09-19T10:36:19;24.00;19.30
439;DHT22;206;48.782;9.252;2023-09-19T10:38:45;23.90;19.20
439;DHT22;206;48.782;9.252;2023-09-19T10:41:15;23.80;19.20
439;DHT22;206;48.782;9.252;2023-09-19T10:43:43;23.70;19.20
439;DHT22;206;48.782;9.252;2023-09-19T10:46:12;23.70;19.50
439;DHT22;206;48.782;9.252;2023-09-19T10:48:38;23.60;19.80
439;DHT22;206;48.782;9.252;2023-09-19T10:51:08;23.60;19.80
439;DHT22;206;48.782;9.252;2023-09-19T10:56:21;23.50;20.30
439;DHT22;206;48.782;9.252;2023-09-19T10:58:48;23.40;19.90
439;DHT22;206;48.782;9.252;2023-09-19T11:01:14;23.40;19.60
439;DHT22;206;48.782;9.252;2023-09-19T11:03:41;23.30;19.10
439;DHT22;206;48.782;9.252;2023-09-19T11:06:12;23.30;19.40
439;DHT22;206;48.782;9.252;2023-09-19T11:08:55;23.40;18.90
439;DHT22;206;48.782;9.252;2023-09-19T11:30:48;23.50;19.40
439;DHT22;206;48.782;9.252;2023-09-19T11:33:24;23.50;19.40
439;DHT22;206;48.782;9.252;2023-09-19T11:36:15;23.50;19.10
439;DHT22;206;48.782;9.252;2023-09-19T11:46:21;23.40;18.40
439;DHT22;206;48.782;9.252;2023-09-19T11:48:49;23.40;17.70
439;DHT22;206;48.782;9.252;2023-09-19T11:51:23;23.50;17.80
439;DHT22;206;48.782;9.252;2023-09-19T11:53:53;23.50;18.40
439;DHT22;206;48.782;9.252;2023-09-19T11:56:20;23.50;17.30
439;DHT22;206;48.782;9.252;2023-09-19T11:58:58;23.50;17.30
439;DHT22;206;48.782;9.252;2023-09-19T12:01:34;23.50;17.20
439;DHT22;206;48.782;9.252;2023-09-19T12:04:02;23.60;17.20
439;DHT22;206;48.782;9.252;2023-09-19T12:06:30;23.70;16.80
439;DHT22;206;48.782;9.252;2023-09-19T12:08:57;23.80;17.90
439;DHT22;206;48.782;9.252;2023-09-19T12:11:29;23.90;17.00
439;DHT22;206;48.782;9.252;2023-09-19T12:13:58;24.00;16.90
439;DHT22;206;48.782;9.252;2023-09-19T12:16:26;24.00;17.00
439;DHT22;206;48.782;9.252;2023-09-19T12:18:55;24.00;16.70
439;DHT22;206;48.782;9.252;2023-09-19T12:21:30;23.90;17.20
439;DHT22;206;48.782;9.252;2023-09-19T12:26:30;24.00;17.30
439;DHT22;206;48.782;9.252;2023-09-19T12:28:59;24.10;17.50
439;DHT22;206;48.782;9.252;2023-09-19T12:31:27;24.10;17.40
439;DHT22;206;48.782;9.252;2023-09-19T12:33:54;24.20;17.80
439;DHT22;206;48.782;9.252;2023-09-19T12:36:23;24.20;17.30
439;DHT22;206;48.782;9.252;2023-09-19T12:38:56;24.20;17.20
439;DHT22;206;48.782;9.252;2023-09-19T12:41:25;24.30;17.60
439;DHT22;206;48.782;9.252;2023-09-19T12:43:52;24.30;17.10
439;DHT22;206;48.782;9.252;2023-09-19T12:46:21;24.30;17.30
439;DHT22;206;48.782;9.252;2023-09-19T12:49:16;24.20;16.80
439;DHT22;206;48.782;9.252;2023-09-19T12:51:48;24.20;17.00
439;DHT22;206;48.782;9.252;2023-09-19T12:54:15;24.30;17.00
439;DHT22;206;48.782;9.252;2023-09-19T12:56:45;24.40;16.60
439;DHT22;206;48.782;9.252;2023-09-19T12:59:13;24.40;16.80
439;DHT22;206;48.782;9.252;2023-09-19T13:01:41;24.40;16.60
439;DHT22;206;48.782;9.252;2023-09-19T13:04:21;24.40;16.50
439;DHT22;206;48.782;9.252;2023-09-19T13:06:55;24.50;16.90
439;DHT22;206;48.782;9.252;2023-09-19T13:09:27;24.50;16.80
439;DHT22;206;48.782;9.252;2023-09-19T13:12:04;24.60;16.80
439;DHT22;206;48.782;9.252;2023-09-19T13:14:32;24.80;16.50
439;DHT22;206;48.782;9.252;2023-09-19T13:17:06;24.90;16.20
439;DHT22;206;48.782;9.252;2023-09-19T13:19:43;24.90;15.70
439;DHT22;206;48.782;9.252;2023-09-19T13:22:39;25.00;15.70
439;DHT22;206;48.782;9.252;2023-09-19T13:25:14;25.10;15.30
439;DHT22;206;48.782;9.252;2023-09-19T13:27:44;25.20;15.20
439;DHT22;206;48.782;9.252;2023-09-19T13:30:11;25.30;15.80
439;DHT22;206;48.782;9.252;2023-09-19T13:32:37;25.40;15.20
439;DHT22;206;48.782;9.252;2023-09-19T13:35:05;25.40;15.30
439;DHT22;206;48.782;9.252;2023-09-19T13:37:32;25.50;14.70
439;DHT22;206;48.782;9.252;2023-09-19T13:39:59;25.50;14.80
439;DHT22;206;48.782;9.252;2023-09-19T13:42:25;25.50;14.70
439;DHT22;206;48.782;9.252;2023-09-19T13:44:55;25.50;14.70
439;DHT22;206;48.782;9.252;2023-09-19T13:47:21;25.50;14.60
439;DHT22;206;48.782;9.252;2023-09-19T13:49:50;25.40;14.30
439;DHT22;206;48.782;9.252;2023-09-19T13:52:21;25.40;14.00
439;DHT22;206;48.782;9.252;2023-09-19T13:54:50;25.40;14.60
439;DHT22;206;48.782;9.252;2023-09-19T13:57:16;25.40;14.40
439;DHT22;206;48.782;9.252;2023-09-19T13:59:42;25.40;14.60
439;DHT22;206;48.782;9.252;2023-09-19T14:02:07;25.40;14.20
439;DHT22;206;48.782;9.252;2023-09-19T14:04:33;25.50;14.40
439;DHT22;206;48.782;9.252;2023-09-19T14:07:02;25.40;14.50
439;DHT22;206;48.782;9.252;2023-09-19T14:09:29;25.50;13.90
439;DHT22;206;48.782;9.252;2023-09-19T14:11:54;25.50;13.70
439;DHT22;206;48.782;9.252;2023-09-19T14:14:20;25.50;13.60
439;DHT22;206;48.782;9.252;2023-09-19T14:16:47;25.50;13.30
439;DHT22;206;48.782;9.252;2023-09-19T14:19:13;25.40;13.80
439;DHT22;206;48.782;9.252;2023-09-19T14:21:40;25.30;13.80
439;DHT22;206;48.782;9.252;2023-09-19T14:24:06;25.40;13.60
439;DHT22;206;48.782;9.252;2023-09-19T14:26:35;25.30;13.70
439;DHT22;206;48.782;9.252;2023-09-19T14:29:01;25.30;14.10
439;DHT22;206;48.782;9.252;2023-09-19T14:31:26;25.30;14.10
439;DHT22;206;48.782;9.252;2023-09-19T14:33:54;25.30;14.30
439;DHT22;206;48.782;9.252;2023-09-19T14:36:21;25.30;13.90
439;DHT22;206;48.782;9.252;2023-09-19T14:38:47;25.30;13.40
439;DHT22;206;48.782;9.252;2023-09-19T14:41:13;25.30;13.70
439;DHT22;206;48.782;9.252;2023-09-19T14:43:38;25.30;14.00
439;DHT22;206;48.782;9.252;2023-09-19T14:46:07;25.30;13.80
439;DHT22;206;48.782;9.252;2023-09-19T14:48:33;25.30;13.60
439;DHT22;206;48.782;9.252;2023-09-19T14:51:06;25.30;13.20
439;DHT22;206;48.782;9.252;2023-09-19T14:53:35;25.30;13.30
439;DHT22;206;48.782;9.252;2023-09-19T14:56:02;25.20;13.30
439;DHT22;206;48.782;9.252;2023-09-19T14:58:31;25.30;13.50
439;DHT22;206;48.782;9.252;2023-09-19T15:01:07;25.30;13.30
439;DHT22;206;48.782;9.252;2023-09-19T15:03:34;25.30;13.20
439;DHT22;206;48.782;9.252;2023-09-19T15:06:04;25.30;12.60
439;DHT22;206;48.782;9.252;2023-09-19T15:08:36;25.30;12.30
439;DHT22;206;48.782;9.252;2023-09-19T15:11:10;25.20;12.40
439;DHT22;206;48.782;9.252;2023-09-19T15:13:38;25.20;12.60
439;DHT22;206;48.782;9.252;2023-09-19T15:16:05;25.10;12.60
439;DHT22;206;48.782;9.252;2023-09-19T15:18:34;25.20;12.50
439;DHT22;206;48.782;9.252;2023-09-19T15:21:06;25.20;12.30
439;DHT22;206;48.782;9.252;2023-09-19T15:23:33;25.10;12.10
439;DHT22;206;48.782;9.252;2023-09-19T15:26:00;25.10;12.10
439;DHT22;206;48.782;9.252;2023-09-19T15:28:27;25.10;12.30
439;DHT22;206;48.782;9.252;2023-09-19T15:31:04;25.10;12.60
439;DHT22;206;48.782;9.252;2023-09-19T15:33:30;25.00;12.40
439;DHT22;206;48.782;9.252;2023-09-19T15:36:06;25.00;12.40
439;DHT22;206;48.782;9.252;2023-09-19T15:41:35;24.90;12.80
439;DHT22;206;48.782;9.252;2023-09-19T15:44:03;24.90;12.80
439;DHT22;206;48.782;9.252;2023-09-19T15:46:33;24.90;12.70
439;DHT22;206;48.782;9.252;2023-09-19T15:49:00;24.90;12.80
439;DHT22;206;48.782;9.252;2023-09-19T15:51:26;24.90;13.00
439;DHT22;206;48.782;9.252;2023-09-19T15:53:53;24.90;13.30
439;DHT22;206;48.782;9.252;2023-09-19T15:56:20;24.90;13.10
439;DHT22;206;48.782;9.252;2023-09-19T15:58:50;25.00;13.30
439;DHT22;206;48.782;9.252;2023-09-19T16:01:17;25.00;12.80
439;DHT22;206;48.782;9.252;2023-09-19T16:03:47;24.90;13.10
439;DHT22;206;48.782;9.252;2023-09-19T16:06:18;24.90;12.90
439;DHT22;206;48.782;9.252;2023-09-19T16:08:46;24.90;13.10
439;DHT22;206;48.782;9.252;2023-09-19T16:11:12;24.80;13.40
439;DHT22;206;48.782;9.252;2023-09-19T16:13:39;24.80;13.40
439;DHT22;206;48.782;9.252;2023-09-19T16:16:11;24.80;13.10
439;DHT22;206;48.782;9.252;2023-09-19T16:18:45;24.90;13.20
439;DHT22;206;48.782;9.252;2023-09-19T16:21:11;24.90;13.10
439;DHT22;206;48.782;9.252;2023-09-19T16:23:36;24.90;13.50
439;DHT22;206;48.782;9.252;2023-09-19T16:26:07;25.00;13.50
439;DHT22;206;48.782;9.252;2023-09-19T16:28:35;25.00;13.90
439;DHT22;206;48.782;9.252;2023-09-19T16:31:02;24.90;13.20
439;DHT22;206;48.782;9.252;2023-09-19T16:33:29;24.90;13.90
439;DHT22;206;48.782;9.252;2023-09-19T16:35:54;24.90;13.60
439;DHT22;206;48.782;9.252;2023-09-19T16:38:20;24.80;13.40
439;DHT22;206;48.782;9.252;2023-09-19T16:40:56;24.70;13.70
439;DHT22;206;48.782;9.252;2023-09-19T16:43:26;24.70;14.00
439;DHT22;206;48.782;9.252;2023-09-19T16:45:56;24.70;14.10
439;DHT22;206;48.782;9.252;2023-09-19T16:48:22;24.60;14.30
439;DHT22;206;48.782;9.252;2023-09-19T16:50:49;24.60;14.50
439;DHT22;206;48.782;9.252;2023-09-19T16:53:19;24.70;15.20
439;DHT22;206;48.782;9.252;2023-09-19T16:55:48;24.60;14.60
439;DHT22;206;48.782;9.252;2023-09-19T16:58:14;24.60;14.60
439;DHT22;206;48.782;9.252;2023-09-19T17:00:40;24.50;14.80
439;DHT22;206;48.782;9.252;2023-09-19T17:03:06;24.50;14.90
439;DHT22;206;48.782;9.252;2023-09-19T17:05:32;24.50;14.90
439;DHT22;206;48.782;9.252;2023-09-19T17:07:58;24.50;15.00
439;DHT22;206;48.782;9.252;2023-09-19T17:10:24;24.40;15.10
439;DHT22;206;48.782;9.252;2023-09-19T17:12:53;24.40;15.10
439;DHT22;206;48.782;9.252;2023-09-19T17:15:21;24.40;15.40
439;DHT22;206;48.782;9.252;2023-09-19T17:17:46;24.30;15.50
439;DHT22;206;48.782;9.252;2023-09-19T17:20:12;24.30;15.80
439;DHT22;206;48.782;9.252;2023-09-19T17:22:38;24.30;16.00
439;DHT22;206;48.782;9.252;2023-09-19T17:25:04;24.30;16.10
439;DHT22;206;48.782;9.252;2023-09-19T17:27:29;24.20;16.10
439;DHT22;206;48.782;9.252;2023-09-19T17:29:56;24.20;16.20
439;DHT22;206;48.782;9.252;2023-09-19T17:32:21;24.20;16.40
439;DHT22;206;48.782;9.252;2023-09-19T17:34:47;24.10;16.50
439;DHT22;206;48.782;9.252;2023-09-19T17:37:16;24.10;16.60